Petaluma, CA (94999)

1:20 PM PDT on October 21, 2014 (GMT -0700)
Volamus Vineyards | Change Station
CLOSE
Current Station
Personal Weather Station
Location: Penngrove, CA
Elevation: 115 ft
Nearby Weather Stations

Elev 115 ft 38.31 °N, 122.67 °W | Updated 4 minutes ago

Clear
Clear
69.3 °F
Feels Like 69.3 °F
N
0.0
Wind Variable Wind from NW
Gusts 0.0 mph

Today
High -- | Low -- °F
--% Chance of Precip.
Yesterday
High -- | Low -- °F
Precip. -- in
7:25 AM 6:24 PM
Waning Crescent, 4% visible
Pressure 30.09 in
Visibility 10.0 miles
Clouds Clear
Dew Point 46 °F
Humidity 44%
Rainfall 0.00 in
Snow Depth Not available.
UV 5 out of 12
Pollen 2.30 out of 12
Air Quality Not available.
Flu Activity Sporadic
METAR KO69 211955Z AUTO 29003KT 10SM CLR 20/05 A3009 RMK AO1

More Conditions Fewer Conditions

Pressure 30.09 in
Visibility 10.0 miles
Clouds Clear
Dew Point 46 °F
Humidity 44%
Rainfall 0.00 in
Snow Depth Not available.
UV 5 out of 12
Pollen 2.30 out of 12
Air Quality Not available.
Flu Activity Sporadic
METAR KO69 211955Z AUTO 29003KT 10SM CLR 20/05 A3009 RMK AO1

More Conditions Fewer Conditions

10-Day Weather Forecast

Almanac

Astronomy

Oct. 21, 2014 Rise Set
Actual Time 7:25 AM PDT 6:24 PM PDT
Civil Twilight 6:58 AM PDT 6:51 PM PDT
Nautical Twilight 6:27 AM PDT 7:21 PM PDT
Astronomical Twilight 5:57 AM PDT 7:52 PM PDT
Moon 5:16 AM PDT 5:19 PM PDT
Length of Visible Light 11h 52m
Length of Day
10h 58m
Tomorrow will be 2m 20s shorter.
Waning Crescent, 4% of the Moon is Illuminated
Today
Waning Crescent
Oct 23
New
Oct 30
First Quarter
Nov 6
Full
Nov 14
Last Quarter

Today's Extremes

State Highs State Lows

Community

WunderPhotos

Upload Photos

1,763,766 photos uploaded!

Nearby

Air Quality

  Air Quality AQ Index Pollutant
Tuesday Good
PM2.5
Wednesday Good
PM2.5
Thursday Good
PM2.5
Friday Good
PM2.5
Saturday Good
PM2.5
Sunday Good
PM2.5

Snow Depth

Station Depth Elevation
Ward Creek #3 1 in 6750 ft
Rubicon #2 1 in 7500 ft
Echo Peak 0 in 7800 ft
Independence Lake 1 in 8450 ft
Tahoe City Cross 0 in 6750 ft

Earthquake Activity

City Distance Mag. Time & Date
Rio Dell, California 163 miles 4.2 7:24 AM PDT
2014-10-19
East Foothills, California 82 miles 2.6 8:16 AM PDT
2014-10-18
Minimum magnitude displayed is 2.5.

Coastal Water Temperatures

Place Temperature
Point Reyes, CA 61.0 °F
Arena Cove, CA 60.1 °F
San Francisco, CA 63.0 °F
Richmond, CA 64.0 °F

Nearby Weather Stations